x

Diamond Shoals (41025) Wave Buoy

8:50 - Wed 28th Sep 2016 All times are EDT. -4 hours from GMT.

  • Sig Wave height 3.6ft
  • Swell Direction
  • Peak Period 11s
  • Average Period 7s
  • Wind
    7mph, 9mph gusts
  • Sea Temp 84°f
  • Ar Temp 81°f
  • Sea Pressure 1016.8mb
  • Diamond Shoals
  • Diamond Shoals

More Historic Weather Station data

Upgrade to MSW Pro to gain access to the past 30 days of data for over 8000 Wavebouys and Weather Stations around the globe.

Join Pro

Comparision Forecast

View Surf forecast
   
Qua 09/28 8:50 3.5ft 11s 7s 7 9 mph 1016.8mb 84f 81f
7:50 3.5ft 7s 7s 7 9 mph 1015.7mb 84f 80f
6:50 3.5ft 11s 7s 7 11 mph 1015.3mb 84f 80f
5:50 3.5ft 11s 7s 4 7 mph 1015.1mb 84f 80f
4:50 3.5ft 8s 7s 7 9 mph 1015mb 84f 78f
3:50 3.5ft 7s 7s 7 9 mph 1015.2mb 84f 78f
2:50 3.5ft 11s 7s 7
mph
1015.4mb 84f 78f
1:50 3.5ft 7s 6s 4 7 mph 1015.3mb 84f 77f
12:50 4ft 8s 7s 7 9 mph 1015.7mb 84f 77f
11:50 4ft 8s 6s 9 11 mph 1015.6mb 84f 77f
10:50 4ft 8s 6s 11 13 mph 1015.3mb 83f 77f
9:50 4ft 12s 6s 11 13 mph 1014.7mb 83f 76f
8:50 4ft 7s 6s 11 13 mph 1013.9mb 84f 76f
7:50 4.5ft 12s 6s 13 16 mph 1013.3mb 84f 77f
6:50 4.5ft 7s 6s 11 16 mph 1012.9mb 84f 76f
5:50 5ft 7s 7s 11 16 mph 1012.3mb 84f 77f
4:50 4.5ft 7s 6s 11 13 mph 1012mb 84f 77f
3:50 5ft 7s 6s 11 13 mph 1012.1mb 83f 77f
2:50 5ft 7s 6s 11 13 mph 1011.9mb 83f 78f
1:50 4.5ft 7s 6s 9 11 mph 1011.8mb 83f 79f
12:50 5ft 7s 6s 11 13 mph 1011.6mb 84f 77f
Ter 09/27 11:50 5ft 7s 6s 13 18 mph 1011.6mb 84f 77f
10:50 5ft 7s 6s 16 18 mph 1011.7mb 84f 77f
9:50 4.5ft 7s 6s 9 11 mph 1012mb 84f 79f
8:50 4.5ft 7s 5s 9 11 mph 1011.9mb 84f 78f
7:50 5ft 7s 6s 11 13 mph 1011.5mb 84f 78f
6:50 5ft 7s 5s 16 20 mph 1011.1mb 84f 77f
5:50 4.5ft 6s 5s 11 16 mph 1011.8mb 84f 77f
4:50 4.5ft 6s 5s 13 16 mph 1012.1mb 84f 76f
3:50 4.5ft 6s 5s 16 20 mph 1012.3mb 84f 76f
2:50 4.5ft 6s 5s 22 25 mph 1012.2mb 84f 77f
1:50 4.5ft 6s 5s 20 25 mph 1012.9mb 84f 76f
12:50 4ft 5s 5s 18 22 mph 1013.8mb 84f 77f
11:50 3.5ft 5s 5s 16 18 mph 1014.5mb 84f 78f
10:50 3.5ft 6s 5s 18 22 mph 1015.1mb 84f 78f
9:50 3.5ft 8s 5s 11 16 mph 1015.2mb 84f 79f
8:50 3.5ft 6s 5s 11 13 mph 1015.2mb 84f 78f
7:50 3.5ft 5s 5s 11 16 mph 1015.1mb 84f 80f
6:50 3.5ft 9s 5s 13 18 mph 1014.6mb 84f 79f
5:50 3.5ft 8s 5s 16 18 mph 1014.6mb 85f 79f
4:50 3.5ft 9s 5s 11 13 mph 1015.1mb 85f 79f
3:50 3.5ft 5s 5s 13 18 mph 1015.5mb 85f 79f
2:50 3.5ft 5s 5s 16 18 mph 1016.2mb 85f 79f
1:50 4ft 6s 5s 18 22 mph 1016.6mb 85f 79f
12:50 3.5ft 7s 5s 18 22 mph 1016.7mb 85f 79f
Seg 09/26 11:50 3.5ft 8s 5s 18 20 mph 1017mb 84f 79f
10:50 3.5ft 8s 5s 18 22 mph 1017.6mb 84f 79f
9:50 3.5ft 4s 4s 18 20 mph 1018.1mb 83f 79f
8:50 3ft 7s 5s 16 20 mph 1018.2mb 81f 79f
7:50 2.5ft 8s 5s 18 20 mph 1017.8mb 80f 79f
6:50 2.5ft 8s 5s 11 16 mph 1017.8mb 80f 78f
5:50 2.5ft 8s 5s 13 16 mph 1017.5mb 79f 79f
4:50 2.5ft 8s 5s 11 13 mph 1017.7mb 79f 78f
3:50 3ft 8s 5s 9 11 mph 1018.1mb 79f 78f
2:50 3ft 8s 5s 9 13 mph 1018.5mb 79f 78f
1:50 3ft 8s 5s 9 11 mph 1019mb 78f 78f
12:50 3.5ft 8s 5s 7 9 mph 1019.8mb 78f 78f
11:50 3.5ft 8s 5s 4 7 mph 1019.9mb 78f 77f
10:50 3.5ft 9s 5s 11 13 mph 1019.9mb 77f 76f
9:50 3.5ft 9s 5s 13 16 mph 1019.5mb 80f 75f
8:50 3.5ft 10s 4s 16 20 mph 1019.1mb 84f 75f
7:50 3.5ft 8s 4s 16 20 mph 1019.2mb 84f 74f
6:50 3.5ft 9s 5s 16 20 mph 1018.8mb 84f 74f
5:50 3.5ft 9s 5s 16 18 mph 1018.8mb 83f 74f
4:50 3.5ft 8s 5s 13 18 mph 1018.8mb 83f 74f
3:50 3ft 8s 5s 16 20 mph 1018.9mb 83f 74f
2:50 3.5ft 8s 5s 16 20 mph 1018.7mb 84f 74f
1:50 3.5ft 8s 5s 16 18 mph 1019.2mb 84f 74f
12:50 3ft 8s 5s 13 18 mph 1019.6mb 84f 74f
Dom 09/25 11:50 3.5ft 9s 5s 16 20 mph 1019.7mb 84f 74f
10:50 3.5ft 8s 5s 16 20 mph 1020.1mb 85f 74f
9:50 4ft 9s 5s 18 20 mph 1020.4mb 85f 74f
8:50 4ft 8s 5s 18 22 mph 1020mb 85f 74f
7:50 4.5ft 10s 5s 18 22 mph 1019.2mb 85f 73f
6:50 4.5ft 10s 5s 20 22 mph 1018.8mb 85f 73f
5:50 4.5ft 8s 5s 22 25 mph 1018.3mb 85f 73f
4:50 4.5ft 9s 5s 20 22 mph 1018.3mb 85f 73f
3:50 5ft 8s 5s 20 25 mph 1018.6mb 85f 74f
2:50 5ft 10s 5s 18 25 mph 1019.1mb 85f 74f
1:50 5ft 8s 5s 20 25 mph 1019.2mb 85f 74f
12:50 4.5ft 11s 5s 22 25 mph 1019.1mb 85f 74f
11:50 5.5ft 5s 5s 22 27 mph 1019.5mb 85f 74f
10:50 6ft 11s 5s 22 25 mph 1019.6mb 85f 73f
9:50 6ft 10s 6s 22 27 mph 1019.5mb 85f 71f
8:50 6ft 11s 6s 25 27 mph 1019.1mb 85f 75f
7:50 6ft 10s 7s 20 25 mph 1018.8mb 85f 76f
6:50 6ft 11s 7s 16 20 mph 1018mb 85f 76f
5:50 6ft 11s 7s 18 20 mph 1017.4mb 85f 76f
4:50 6ft 10s 7s 16 20 mph 1017mb 85f 76f
3:50 6.5ft 11s 7s 18 22 mph 1016.9mb 85f 76f
2:50 6ft 11s 7s 16 20 mph 1017.1mb 85f 77f
1:50 7ft 11s 8s 16 20 mph 1017.2mb 85f 77f